sensor_id;sensor_type;location;lat;lon;timestamp;temperature;humidity
45983;DHT22;31711;47.158;7.346;2022-12-07T00:01:27;1.10;99.90
45983;DHT22;31711;47.158;7.346;2022-12-07T00:03:54;1.20;99.90
45983;DHT22;31711;47.158;7.346;2022-12-07T00:06:22;1.10;99.90
45983;DHT22;31711;47.158;7.346;2022-12-07T00:08:48;1.00;99.90
45983;DHT22;31711;47.158;7.346;2022-12-07T00:11:17;1.10;99.90
45983;DHT22;31711;47.158;7.346;2022-12-07T00:13:44;1.20;99.90
45983;DHT22;31711;47.158;7.346;2022-12-07T00:16:11;1.10;99.90
45983;DHT22;31711;47.158;7.346;2022-12-07T00:18:38;1.20;99.90
45983;DHT22;31711;47.158;7.346;2022-12-07T00:21:14;1.20;99.90
45983;DHT22;31711;47.158;7.346;2022-12-07T00:23:42;1.20;99.90
45983;DHT22;31711;47.158;7.346;2022-12-07T00:28:38;1.10;99.90
45983;DHT22;31711;47.158;7.346;2022-12-07T00:31:06;1.10;99.90
45983;DHT22;31711;47.158;7.346;2022-12-07T00:33:34;1.10;99.90
45983;DHT22;31711;47.158;7.346;2022-12-07T00:36:01;1.00;99.90
45983;DHT22;31711;47.158;7.346;2022-12-07T00:38:29;1.00;99.90
45983;DHT22;31711;47.158;7.346;2022-12-07T00:41:01;1.00;99.90
45983;DHT22;31711;47.158;7.346;2022-12-07T00:43:28;1.00;99.90
45983;DHT22;31711;47.158;7.346;2022-12-07T00:45:55;1.00;99.90
45983;DHT22;31711;47.158;7.346;2022-12-07T00:48:21;1.00;99.90
45983;DHT22;31711;47.158;7.346;2022-12-07T00:50:48;1.00;99.90
45983;DHT22;31711;47.158;7.346;2022-12-07T00:53:14;1.10;99.90
45983;DHT22;31711;47.158;7.346;2022-12-07T00:55:41;1.00;99.90
45983;DHT22;31711;47.158;7.346;2022-12-07T00:58:07;1.10;99.90
45983;DHT22;31711;47.158;7.346;2022-12-07T01:00:35;1.00;99.90
45983;DHT22;31711;47.158;7.346;2022-12-07T01:03:02;1.10;99.90
45983;DHT22;31711;47.158;7.346;2022-12-07T01:05:28;1.00;99.90
45983;DHT22;31711;47.158;7.346;2022-12-07T01:07:54;0.90;99.90
45983;DHT22;31711;47.158;7.346;2022-12-07T01:10:20;1.00;99.90
45983;DHT22;31711;47.158;7.346;2022-12-07T01:12:46;1.00;99.90
45983;DHT22;31711;47.158;7.346;2022-12-07T01:15:12;1.00;99.90
45983;DHT22;31711;47.158;7.346;2022-12-07T01:17:38;1.10;99.90
45983;DHT22;31711;47.158;7.346;2022-12-07T01:20:05;1.10;99.90
45983;DHT22;31711;47.158;7.346;2022-12-07T01:22:35;1.10;99.90
45983;DHT22;31711;47.158;7.346;2022-12-07T01:25:01;1.10;99.90
45983;DHT22;31711;47.158;7.346;2022-12-07T01:27:27;1.10;99.90
45983;DHT22;31711;47.158;7.346;2022-12-07T01:29:53;1.10;99.90
45983;DHT22;31711;47.158;7.346;2022-12-07T01:32:19;1.10;99.90
45983;DHT22;31711;47.158;7.346;2022-12-07T01:34:48;1.20;99.90
45983;DHT22;31711;47.158;7.346;2022-12-07T01:37:13;1.20;99.90
45983;DHT22;31711;47.158;7.346;2022-12-07T01:39:40;1.20;99.90
45983;DHT22;31711;47.158;7.346;2022-12-07T01:42:12;1.30;99.90
45983;DHT22;31711;47.158;7.346;2022-12-07T01:47:45;1.20;99.90
45983;DHT22;31711;47.158;7.346;2022-12-07T01:50:13;1.30;99.90
45983;DHT22;31711;47.158;7.346;2022-12-07T01:52:39;1.40;99.90
45983;DHT22;31711;47.158;7.346;2022-12-07T01:55:08;1.40;99.90
45983;DHT22;31711;47.158;7.346;2022-12-07T01:57:39;1.50;99.90
45983;DHT22;31711;47.158;7.346;2022-12-07T02:00:07;1.50;99.90
45983;DHT22;31711;47.158;7.346;2022-12-07T02:02:38;1.60;99.90
45983;DHT22;31711;47.158;7.346;2022-12-07T02:05:06;1.70;99.90
45983;DHT22;31711;47.158;7.346;2022-12-07T02:07:34;1.70;99.90
45983;DHT22;31711;47.158;7.346;2022-12-07T02:10:26;1.60;99.90
45983;DHT22;31711;47.158;7.346;2022-12-07T02:12:56;1.50;99.90
45983;DHT22;31711;47.158;7.346;2022-12-07T02:15:26;1.40;99.90
45983;DHT22;31711;47.158;7.346;2022-12-07T02:17:58;1.30;99.90
45983;DHT22;31711;47.158;7.346;2022-12-07T02:20:30;1.40;99.90
45983;DHT22;31711;47.158;7.346;2022-12-07T02:23:12;1.50;99.90
45983;DHT22;31711;47.158;7.346;2022-12-07T02:28:33;1.40;99.90
45983;DHT22;31711;47.158;7.346;2022-12-07T02:31:11;1.40;99.90
45983;DHT22;31711;47.158;7.346;2022-12-07T02:33:45;1.40;99.90
45983;DHT22;31711;47.158;7.346;2022-12-07T02:36:28;1.30;99.90
45983;DHT22;31711;47.158;7.346;2022-12-07T02:39:05;1.40;99.90
45983;DHT22;31711;47.158;7.346;2022-12-07T02:41:36;1.40;99.90
45983;DHT22;31711;47.158;7.346;2022-12-07T02:44:10;1.40;99.90
45983;DHT22;31711;47.158;7.346;2022-12-07T02:46:42;1.30;99.90
45983;DHT22;31711;47.158;7.346;2022-12-07T02:49:09;1.40;99.90
45983;DHT22;31711;47.158;7.346;2022-12-07T02:51:43;1.50;99.90
45983;DHT22;31711;47.158;7.346;2022-12-07T02:54:16;1.50;99.90
45983;DHT22;31711;47.158;7.346;2022-12-07T03:02:18;1.60;99.90
45983;DHT22;31711;47.158;7.346;2022-12-07T03:04:57;1.60;99.90
45983;DHT22;31711;47.158;7.346;2022-12-07T03:07:45;1.70;99.90
45983;DHT22;31711;47.158;7.346;2022-12-07T03:12:47;1.80;99.90
45983;DHT22;31711;47.158;7.346;2022-12-07T03:15:26;1.80;99.90
45983;DHT22;31711;47.158;7.346;2022-12-07T03:17:55;1.70;99.90
45983;DHT22;31711;47.158;7.346;2022-12-07T03:20:23;1.50;99.90
45983;DHT22;31711;47.158;7.346;2022-12-07T03:22:51;1.50;99.90
45983;DHT22;31711;47.158;7.346;2022-12-07T03:25:19;1.50;99.90
45983;DHT22;31711;47.158;7.346;2022-12-07T03:27:58;1.50;99.90
45983;DHT22;31711;47.158;7.346;2022-12-07T03:30:44;1.50;99.90
45983;DHT22;31711;47.158;7.346;2022-12-07T03:33:19;1.50;99.90
45983;DHT22;31711;47.158;7.346;2022-12-07T03:36:21;1.50;99.90
45983;DHT22;31711;47.158;7.346;2022-12-07T03:39:07;1.50;99.90
45983;DHT22;31711;47.158;7.346;2022-12-07T03:41:37;1.50;99.90
45983;DHT22;31711;47.158;7.346;2022-12-07T03:44:05;1.50;99.90
45983;DHT22;31711;47.158;7.346;2022-12-07T03:49:25;1.50;99.90
45983;DHT22;31711;47.158;7.346;2022-12-07T03:52:26;1.40;99.90
45983;DHT22;31711;47.158;7.346;2022-12-07T03:55:00;1.40;99.90
45983;DHT22;31711;47.158;7.346;2022-12-07T03:57:28;1.40;99.90
45983;DHT22;31711;47.158;7.346;2022-12-07T03:59:57;1.40;99.90
45983;DHT22;31711;47.158;7.346;2022-12-07T04:02:25;1.50;99.90
45983;DHT22;31711;47.158;7.346;2022-12-07T04:04:52;1.50;99.90
45983;DHT22;31711;47.158;7.346;2022-12-07T04:07:18;1.60;99.90
45983;DHT22;31711;47.158;7.346;2022-12-07T04:09:44;1.50;99.90
45983;DHT22;31711;47.158;7.346;2022-12-07T04:12:10;1.60;99.90
45983;DHT22;31711;47.158;7.346;2022-12-07T04:14:36;1.60;99.90
45983;DHT22;31711;47.158;7.346;2022-12-07T04:17:02;1.60;99.90
45983;DHT22;31711;47.158;7.346;2022-12-07T04:19:31;1.50;99.90
45983;DHT22;31711;47.158;7.346;2022-12-07T04:21:59;1.50;99.90
45983;DHT22;31711;47.158;7.346;2022-12-07T04:24:25;1.60;99.90
45983;DHT22;31711;47.158;7.346;2022-12-07T04:26:51;1.70;99.90
45983;DHT22;31711;47.158;7.346;2022-12-07T04:29:18;1.80;99.90
45983;DHT22;31711;47.158;7.346;2022-12-07T04:31:44;1.80;99.90
45983;DHT22;31711;47.158;7.346;2022-12-07T04:34:11;1.80;99.90
45983;DHT22;31711;47.158;7.346;2022-12-07T04:36:37;1.80;99.90
45983;DHT22;31711;47.158;7.346;2022-12-07T04:39:04;1.90;99.90
45983;DHT22;31711;47.158;7.346;2022-12-07T04:41:31;2.00;99.90
45983;DHT22;31711;47.158;7.346;2022-12-07T04:43:58;2.00;99.90
45983;DHT22;31711;47.158;7.346;2022-12-07T04:46:25;2.10;99.90
45983;DHT22;31711;47.158;7.346;2022-12-07T04:48:52;2.10;99.90
45983;DHT22;31711;47.158;7.346;2022-12-07T04:51:25;2.10;99.90
45983;DHT22;31711;47.158;7.346;2022-12-07T04:53:52;2.10;99.90
45983;DHT22;31711;47.158;7.346;2022-12-07T04:56:19;2.00;99.90
45983;DHT22;31711;47.158;7.346;2022-12-07T04:58:46;2.10;99.90
45983;DHT22;31711;47.158;7.346;2022-12-07T05:01:13;2.10;99.90
45983;DHT22;31711;47.158;7.346;2022-12-07T05:03:40;2.10;99.90
45983;DHT22;31711;47.158;7.346;2022-12-07T05:06:06;2.10;99.90
45983;DHT22;31711;47.158;7.346;2022-12-07T05:08:33;2.10;99.90
45983;DHT22;31711;47.158;7.346;2022-12-07T05:11:00;2.20;99.90
45983;DHT22;31711;47.158;7.346;2022-12-07T05:13:27;2.10;99.90
45983;DHT22;31711;47.158;7.346;2022-12-07T05:15:53;2.10;99.90
45983;DHT22;31711;47.158;7.346;2022-12-07T05:18:19;2.10;99.90
45983;DHT22;31711;47.158;7.346;2022-12-07T05:20:45;2.10;99.90
45983;DHT22;31711;47.158;7.346;2022-12-07T05:23:11;2.20;99.90
45983;DHT22;31711;47.158;7.346;2022-12-07T05:25:38;2.20;99.90
45983;DHT22;31711;47.158;7.346;2022-12-07T05:28:04;2.20;99.90
45983;DHT22;31711;47.158;7.346;2022-12-07T05:30:30;2.20;99.90
45983;DHT22;31711;47.158;7.346;2022-12-07T05:32:56;2.20;99.90
45983;DHT22;31711;47.158;7.346;2022-12-07T05:35:23;2.00;99.90
45983;DHT22;31711;47.158;7.346;2022-12-07T05:37:49;2.10;99.90
45983;DHT22;31711;47.158;7.346;2022-12-07T05:40:15;2.10;99.90
45983;DHT22;31711;47.158;7.346;2022-12-07T05:42:42;2.10;99.90
45983;DHT22;31711;47.158;7.346;2022-12-07T05:45:09;2.10;99.90
45983;DHT22;31711;47.158;7.346;2022-12-07T05:47:35;2.20;99.90
45983;DHT22;31711;47.158;7.346;2022-12-07T05:50:02;2.20;99.90
45983;DHT22;31711;47.158;7.346;2022-12-07T05:52:29;2.00;99.90
45983;DHT22;31711;47.158;7.346;2022-12-07T05:54:54;1.90;99.90
45983;DHT22;31711;47.158;7.346;2022-12-07T05:57:20;2.00;99.90
45983;DHT22;31711;47.158;7.346;2022-12-07T05:59:46;2.10;99.90
45983;DHT22;31711;47.158;7.346;2022-12-07T06:02:14;2.20;99.90
45983;DHT22;31711;47.158;7.346;2022-12-07T06:04:43;2.10;99.90
45983;DHT22;31711;47.158;7.346;2022-12-07T06:07:10;2.10;99.90
45983;DHT22;31711;47.158;7.346;2022-12-07T06:09:37;2.20;99.90
45983;DHT22;31711;47.158;7.346;2022-12-07T06:12:04;1.90;99.90
45983;DHT22;31711;47.158;7.346;2022-12-07T06:14:49;1.90;99.90
45983;DHT22;31711;47.158;7.346;2022-12-07T06:17:15;1.90;99.90
45983;DHT22;31711;47.158;7.346;2022-12-07T06:19:42;1.80;99.90
45983;DHT22;31711;47.158;7.346;2022-12-07T06:22:09;1.80;99.90
45983;DHT22;31711;47.158;7.346;2022-12-07T06:24:36;1.80;99.90
45983;DHT22;31711;47.158;7.346;2022-12-07T06:27:02;1.90;99.90
45983;DHT22;31711;47.158;7.346;2022-12-07T06:29:28;1.90;99.90
45983;DHT22;31711;47.158;7.346;2022-12-07T06:31:54;1.80;99.90
45983;DHT22;31711;47.158;7.346;2022-12-07T06:34:21;1.90;99.90
45983;DHT22;31711;47.158;7.346;2022-12-07T06:36:49;2.00;99.90
45983;DHT22;31711;47.158;7.346;2022-12-07T06:39:18;1.90;99.90
45983;DHT22;31711;47.158;7.346;2022-12-07T06:41:45;2.00;99.90
45983;DHT22;31711;47.158;7.346;2022-12-07T06:44:11;2.10;99.90
45983;DHT22;31711;47.158;7.346;2022-12-07T06:46:37;2.10;99.90
45983;DHT22;31711;47.158;7.346;2022-12-07T06:49:04;2.00;99.90
45983;DHT22;31711;47.158;7.346;2022-12-07T06:51:32;2.00;99.90
45983;DHT22;31711;47.158;7.346;2022-12-07T06:53:58;2.10;99.90
45983;DHT22;31711;47.158;7.346;2022-12-07T06:56:24;2.00;99.90
45983;DHT22;31711;47.158;7.346;2022-12-07T06:58:50;1.90;99.90
45983;DHT22;31711;47.158;7.346;2022-12-07T07:01:17;1.80;99.90
45983;DHT22;31711;47.158;7.346;2022-12-07T07:03:45;1.80;99.90
45983;DHT22;31711;47.158;7.346;2022-12-07T07:06:12;1.90;99.90
45983;DHT22;31711;47.158;7.346;2022-12-07T07:08:38;2.00;99.90
45983;DHT22;31711;47.158;7.346;2022-12-07T07:11:06;2.10;99.90
45983;DHT22;31711;47.158;7.346;2022-12-07T07:13:32;2.20;99.90
45983;DHT22;31711;47.158;7.346;2022-12-07T07:15:58;2.10;99.90
45983;DHT22;31711;47.158;7.346;2022-12-07T07:18:24;2.20;99.90
45983;DHT22;31711;47.158;7.346;2022-12-07T07:20:51;2.20;99.90
45983;DHT22;31711;47.158;7.346;2022-12-07T07:23:17;2.20;99.90
45983;DHT22;31711;47.158;7.346;2022-12-07T07:25:44;2.20;99.90
45983;DHT22;31711;47.158;7.346;2022-12-07T07:28:10;2.20;99.90
45983;DHT22;31711;47.158;7.346;2022-12-07T07:30:36;2.20;99.90
45983;DHT22;31711;47.158;7.346;2022-12-07T07:33:03;2.10;99.90
45983;DHT22;31711;47.158;7.346;2022-12-07T07:35:31;1.90;99.90
45983;DHT22;31711;47.158;7.346;2022-12-07T07:37:58;1.90;99.90
45983;DHT22;31711;47.158;7.346;2022-12-07T07:40:25;1.90;99.90
45983;DHT22;31711;47.158;7.346;2022-12-07T07:42:52;1.90;99.90
45983;DHT22;31711;47.158;7.346;2022-12-07T07:45:20;1.90;99.90
45983;DHT22;31711;47.158;7.346;2022-12-07T07:47:47;1.90;99.90
45983;DHT22;31711;47.158;7.346;2022-12-07T07:50:13;1.90;99.90
45983;DHT22;31711;47.158;7.346;2022-12-07T07:52:39;1.90;99.90
45983;DHT22;31711;47.158;7.346;2022-12-07T07:55:06;2.00;99.90
45983;DHT22;31711;47.158;7.346;2022-12-07T07:57:36;2.10;99.90
45983;DHT22;31711;47.158;7.346;2022-12-07T08:00:13;2.20;99.90
45983;DHT22;31711;47.158;7.346;2022-12-07T08:02:40;2.30;99.90
45983;DHT22;31711;47.158;7.346;2022-12-07T08:05:07;2.30;99.90
45983;DHT22;31711;47.158;7.346;2022-12-07T08:07:33;2.30;99.90
45983;DHT22;31711;47.158;7.346;2022-12-07T08:09:59;2.40;99.90
45983;DHT22;31711;47.158;7.346;2022-12-07T08:12:25;2.40;99.90
45983;DHT22;31711;47.158;7.346;2022-12-07T08:14:50;2.50;99.90
45983;DHT22;31711;47.158;7.346;2022-12-07T08:17:17;2.30;99.90
45983;DHT22;31711;47.158;7.346;2022-12-07T08:19:43;2.30;99.90
45983;DHT22;31711;47.158;7.346;2022-12-07T08:22:09;2.40;99.90
45983;DHT22;31711;47.158;7.346;2022-12-07T08:24:36;2.60;99.90
45983;DHT22;31711;47.158;7.346;2022-12-07T08:27:02;2.80;99.90
45983;DHT22;31711;47.158;7.346;2022-12-07T08:29:28;2.80;99.90
45983;DHT22;31711;47.158;7.346;2022-12-07T08:31:54;2.90;99.90
45983;DHT22;31711;47.158;7.346;2022-12-07T08:34:20;3.10;99.90
45983;DHT22;31711;47.158;7.346;2022-12-07T08:36:46;3.20;99.90
45983;DHT22;31711;47.158;7.346;2022-12-07T08:39:12;3.10;99.90
45983;DHT22;31711;47.158;7.346;2022-12-07T08:41:39;3.10;99.90
45983;DHT22;31711;47.158;7.346;2022-12-07T08:44:05;3.20;99.90
45983;DHT22;31711;47.158;7.346;2022-12-07T08:46:53;3.30;99.90
45983;DHT22;31711;47.158;7.346;2022-12-07T08:49:41;3.30;99.90
45983;DHT22;31711;47.158;7.346;2022-12-07T08:52:09;3.20;99.90
45983;DHT22;31711;47.158;7.346;2022-12-07T08:54:37;3.10;99.90
45983;DHT22;31711;47.158;7.346;2022-12-07T08:57:04;3.30;99.90
45983;DHT22;31711;47.158;7.346;2022-12-07T08:59:33;3.30;99.90
45983;DHT22;31711;47.158;7.346;2022-12-07T09:02:00;3.30;99.90
45983;DHT22;31711;47.158;7.346;2022-12-07T09:04:26;3.20;99.90
45983;DHT22;31711;47.158;7.346;2022-12-07T09:06:54;3.30;99.90
45983;DHT22;31711;47.158;7.346;2022-12-07T09:09:20;3.40;99.90
45983;DHT22;31711;47.158;7.346;2022-12-07T09:11:46;3.40;99.90
45983;DHT22;31711;47.158;7.346;2022-12-07T09:14:12;3.40;99.90
45983;DHT22;31711;47.158;7.346;2022-12-07T09:16:39;3.30;99.90
45983;DHT22;31711;47.158;7.346;2022-12-07T09:19:05;3.40;99.90
45983;DHT22;31711;47.158;7.346;2022-12-07T09:21:31;3.50;99.90
45983;DHT22;31711;47.158;7.346;2022-12-07T09:23:57;3.50;99.90
45983;DHT22;31711;47.158;7.346;2022-12-07T09:26:23;3.40;99.90
45983;DHT22;31711;47.158;7.346;2022-12-07T09:28:49;3.40;99.90
45983;DHT22;31711;47.158;7.346;2022-12-07T09:31:15;3.40;99.90
45983;DHT22;31711;47.158;7.346;2022-12-07T09:33:41;3.50;99.90
45983;DHT22;31711;47.158;7.346;2022-12-07T09:36:07;3.50;99.90
45983;DHT22;31711;47.158;7.346;2022-12-07T09:38:35;3.40;99.90
45983;DHT22;31711;47.158;7.346;2022-12-07T09:41:06;3.50;99.90
45983;DHT22;31711;47.158;7.346;2022-12-07T09:43:35;3.60;99.90
45983;DHT22;31711;47.158;7.346;2022-12-07T09:46:01;3.70;99.90
45983;DHT22;31711;47.158;7.346;2022-12-07T09:48:33;3.50;99.90
45983;DHT22;31711;47.158;7.346;2022-12-07T09:51:03;3.60;99.90
45983;DHT22;31711;47.158;7.346;2022-12-07T09:53:37;3.80;99.90
45983;DHT22;31711;47.158;7.346;2022-12-07T09:56:04;3.70;99.90
45983;DHT22;31711;47.158;7.346;2022-12-07T09:58:31;3.80;99.90
45983;DHT22;31711;47.158;7.346;2022-12-07T10:01:13;3.80;99.90
45983;DHT22;31711;47.158;7.346;2022-12-07T10:03:41;3.80;99.90
45983;DHT22;31711;47.158;7.346;2022-12-07T10:06:11;3.80;99.90
45983;DHT22;31711;47.158;7.346;2022-12-07T10:08:38;4.00;99.90
45983;DHT22;31711;47.158;7.346;2022-12-07T10:11:04;4.10;99.90
45983;DHT22;31711;47.158;7.346;2022-12-07T10:16:02;4.20;99.90
45983;DHT22;31711;47.158;7.346;2022-12-07T10:18:40;4.50;99.90
45983;DHT22;31711;47.158;7.346;2022-12-07T10:21:15;4.70;99.90
45983;DHT22;31711;47.158;7.346;2022-12-07T10:23:43;4.70;99.90
45983;DHT22;31711;47.158;7.346;2022-12-07T10:29:21;4.70;99.90
45983;DHT22;31711;47.158;7.346;2022-12-07T10:32:03;4.80;99.90
45983;DHT22;31711;47.158;7.346;2022-12-07T10:34:35;4.80;99.90
45983;DHT22;31711;47.158;7.346;2022-12-07T10:45:24;4.90;99.90
45983;DHT22;31711;47.158;7.346;2022-12-07T10:48:33;5.10;99.90
45983;DHT22;31711;47.158;7.346;2022-12-07T10:51:10;5.10;99.90
45983;DHT22;31711;47.158;7.346;2022-12-07T11:15:11;4.90;99.90
45983;DHT22;31711;47.158;7.346;2022-12-07T11:18:03;4.70;99.90
45983;DHT22;31711;47.158;7.346;2022-12-07T11:29:41;5.10;99.90
45983;DHT22;31711;47.158;7.346;2022-12-07T11:37:35;4.90;99.90
45983;DHT22;31711;47.158;7.346;2022-12-07T11:40:26;4.90;99.90
45983;DHT22;31711;47.158;7.346;2022-12-07T11:42:59;5.00;99.90
45983;DHT22;31711;47.158;7.346;2022-12-07T11:45:30;4.90;99.90
45983;DHT22;31711;47.158;7.346;2022-12-07T11:50:41;5.00;99.90
45983;DHT22;31711;47.158;7.346;2022-12-07T12:03:52;5.20;99.90
45983;DHT22;31711;47.158;7.346;2022-12-07T12:06:19;5.20;99.90
45983;DHT22;31711;47.158;7.346;2022-12-07T12:21:06;5.20;99.90
45983;DHT22;31711;47.158;7.346;2022-12-07T12:23:19;5.40;99.90
45983;DHT22;31711;47.158;7.346;2022-12-07T12:25:52;5.30;99.90
45983;DHT22;31711;47.158;7.346;2022-12-07T12:28:39;5.20;99.90
45983;DHT22;31711;47.158;7.346;2022-12-07T12:33:51;5.10;99.90
45983;DHT22;31711;47.158;7.346;2022-12-07T12:44:02;5.00;99.90
45983;DHT22;31711;47.158;7.346;2022-12-07T12:49:14;4.90;99.90
45983;DHT22;31711;47.158;7.346;2022-12-07T12:51:42;4.70;99.90
45983;DHT22;31711;47.158;7.346;2022-12-07T13:02:14;4.40;99.90
45983;DHT22;31711;47.158;7.346;2022-12-07T13:05:00;4.20;99.90
45983;DHT22;31711;47.158;7.346;2022-12-07T13:13:00;4.50;99.90
45983;DHT22;31711;47.158;7.346;2022-12-07T13:28:45;4.10;99.90
45983;DHT22;31711;47.158;7.346;2022-12-07T13:33:56;4.10;99.90
45983;DHT22;31711;47.158;7.346;2022-12-07T13:36:28;3.80;99.90
45983;DHT22;31711;47.158;7.346;2022-12-07T13:38:58;3.90;99.90
45983;DHT22;31711;47.158;7.346;2022-12-07T13:41:26;3.90;99.90
45983;DHT22;31711;47.158;7.346;2022-12-07T13:44:03;4.10;99.90
45983;DHT22;31711;47.158;7.346;2022-12-07T13:49:55;3.90;99.90
45983;DHT22;31711;47.158;7.346;2022-12-07T13:52:31;3.90;99.90
45983;DHT22;31711;47.158;7.346;2022-12-07T13:55:32;4.00;99.90
45983;DHT22;31711;47.158;7.346;2022-12-07T13:58:01;4.00;99.90
45983;DHT22;31711;47.158;7.346;2022-12-07T14:00:43;4.10;99.90
45983;DHT22;31711;47.158;7.346;2022-12-07T14:03:37;4.20;99.90
45983;DHT22;31711;47.158;7.346;2022-12-07T14:06:58;4.10;99.90
45983;DHT22;31711;47.158;7.346;2022-12-07T14:10:25;4.20;99.90
45983;DHT22;31711;47.158;7.346;2022-12-07T14:17:02;4.00;99.90
45983;DHT22;31711;47.158;7.346;2022-12-07T14:23:41;3.90;99.90
45983;DHT22;31711;47.158;7.346;2022-12-07T14:27:53;4.00;99.90
45983;DHT22;31711;47.158;7.346;2022-12-07T14:31:47;4.00;99.90
45983;DHT22;31711;47.158;7.346;2022-12-07T14:46:52;4.20;99.90
45983;DHT22;31711;47.158;7.346;2022-12-07T14:50:02;4.40;99.90
45983;DHT22;31711;47.158;7.346;2022-12-07T14:53:03;4.30;99.90
45983;DHT22;31711;47.158;7.346;2022-12-07T14:56:41;4.00;99.90
45983;DHT22;31711;47.158;7.346;2022-12-07T14:59:55;4.10;99.90
45983;DHT22;31711;47.158;7.346;2022-12-07T15:20:26;3.90;99.90
45983;DHT22;31711;47.158;7.346;2022-12-07T15:23:59;3.90;99.90
45983;DHT22;31711;47.158;7.346;2022-12-07T15:26:50;3.80;99.90
45983;DHT22;31711;47.158;7.346;2022-12-07T15:29:33;3.50;99.90
45983;DHT22;31711;47.158;7.346;2022-12-07T15:32:31;3.40;99.90
45983;DHT22;31711;47.158;7.346;2022-12-07T15:35:31;3.20;99.90
45983;DHT22;31711;47.158;7.346;2022-12-07T15:38:07;3.10;99.90
45983;DHT22;31711;47.158;7.346;2022-12-07T15:40:54;3.00;99.90
45983;DHT22;31711;47.158;7.346;2022-12-07T15:43:59;2.90;99.90
45983;DHT22;31711;47.158;7.346;2022-12-07T15:46:43;2.80;99.90
45983;DHT22;31711;47.158;7.346;2022-12-07T15:49:17;2.60;99.90
45983;DHT22;31711;47.158;7.346;2022-12-07T15:51:44;2.50;99.90
45983;DHT22;31711;47.158;7.346;2022-12-07T15:56:46;2.40;99.90
45983;DHT22;31711;47.158;7.346;2022-12-07T15:59:12;2.30;99.90
45983;DHT22;31711;47.158;7.346;2022-12-07T16:01:38;2.20;99.90
45983;DHT22;31711;47.158;7.346;2022-12-07T16:04:04;2.10;99.90
45983;DHT22;31711;47.158;7.346;2022-12-07T16:06:30;2.00;99.90
45983;DHT22;31711;47.158;7.346;2022-12-07T16:08:56;2.00;99.90
45983;DHT22;31711;47.158;7.346;2022-12-07T16:11:23;1.90;99.90
45983;DHT22;31711;47.158;7.346;2022-12-07T16:13:49;1.90;99.90
45983;DHT22;31711;47.158;7.346;2022-12-07T16:16:18;1.80;99.90
45983;DHT22;31711;47.158;7.346;2022-12-07T16:18:45;1.70;99.90
45983;DHT22;31711;47.158;7.346;2022-12-07T16:21:12;1.60;99.90
45983;DHT22;31711;47.158;7.346;2022-12-07T16:23:39;1.60;99.90
45983;DHT22;31711;47.158;7.346;2022-12-07T16:26:13;1.50;99.90
45983;DHT22;31711;47.158;7.346;2022-12-07T16:28:39;1.50;99.90
45983;DHT22;31711;47.158;7.346;2022-12-07T16:31:11;1.40;99.90
45983;DHT22;31711;47.158;7.346;2022-12-07T16:33:39;1.30;99.90
45983;DHT22;31711;47.158;7.346;2022-12-07T16:36:07;1.20;99.90
45983;DHT22;31711;47.158;7.346;2022-12-07T16:38:33;1.20;99.90
45983;DHT22;31711;47.158;7.346;2022-12-07T16:41:00;1.10;99.90
45983;DHT22;31711;47.158;7.346;2022-12-07T16:43:26;1.10;99.90
45983;DHT22;31711;47.158;7.346;2022-12-07T16:45:52;1.00;99.90
45983;DHT22;31711;47.158;7.346;2022-12-07T16:48:18;0.90;99.90
45983;DHT22;31711;47.158;7.346;2022-12-07T16:50:44;0.80;99.90
45983;DHT22;31711;47.158;7.346;2022-12-07T16:53:12;0.80;99.90
45983;DHT22;31711;47.158;7.346;2022-12-07T16:55:41;0.80;99.90
45983;DHT22;31711;47.158;7.346;2022-12-07T16:58:08;0.80;99.90
45983;DHT22;31711;47.158;7.346;2022-12-07T17:00:34;0.80;99.90
45983;DHT22;31711;47.158;7.346;2022-12-07T17:03:00;0.60;99.90
45983;DHT22;31711;47.158;7.346;2022-12-07T17:05:26;0.70;99.90
45983;DHT22;31711;47.158;7.346;2022-12-07T17:07:55;0.60;99.90
45983;DHT22;31711;47.158;7.346;2022-12-07T17:10:22;0.50;99.90
45983;DHT22;31711;47.158;7.346;2022-12-07T17:12:49;0.50;99.90
45983;DHT22;31711;47.158;7.346;2022-12-07T17:15:15;0.50;99.90
45983;DHT22;31711;47.158;7.346;2022-12-07T17:18:12;0.40;99.90
45983;DHT22;31711;47.158;7.346;2022-12-07T17:20:38;0.40;99.90
45983;DHT22;31711;47.158;7.346;2022-12-07T17:23:04;0.30;99.90
45983;DHT22;31711;47.158;7.346;2022-12-07T17:25:30;0.20;99.90
45983;DHT22;31711;47.158;7.346;2022-12-07T17:27:56;0.20;99.90
45983;DHT22;31711;47.158;7.346;2022-12-07T17:30:22;0.30;99.90
45983;DHT22;31711;47.158;7.346;2022-12-07T17:32:51;0.20;99.90
45983;DHT22;31711;47.158;7.346;2022-12-07T17:35:17;0.10;99.90
45983;DHT22;31711;47.158;7.346;2022-12-07T17:37:43;0.10;99.90
45983;DHT22;31711;47.158;7.346;2022-12-07T17:40:09;0.00;99.90
45983;DHT22;31711;47.158;7.346;2022-12-07T17:42:35;0.10;99.90
45983;DHT22;31711;47.158;7.346;2022-12-07T17:45:06;0.00;99.90
45983;DHT22;31711;47.158;7.346;2022-12-07T17:47:32;0.00;99.90
45983;DHT22;31711;47.158;7.346;2022-12-07T17:49:58;-0.10;99.90
45983;DHT22;31711;47.158;7.346;2022-12-07T17:52:24;-0.10;99.90
45983;DHT22;31711;47.158;7.346;2022-12-07T17:55:09;0.00;99.90
45983;DHT22;31711;47.158;7.346;2022-12-07T17:57:35;-0.10;99.90
45983;DHT22;31711;47.158;7.346;2022-12-07T18:00:02;-0.10;99.90
45983;DHT22;31711;47.158;7.346;2022-12-07T18:02:28;-0.10;99.90
45983;DHT22;31711;47.158;7.346;2022-12-07T18:04:54;-0.20;99.90
45983;DHT22;31711;47.158;7.346;2022-12-07T18:07:20;-0.30;99.90
45983;DHT22;31711;47.158;7.346;2022-12-07T18:09:46;-0.40;99.90
45983;DHT22;31711;47.158;7.346;2022-12-07T18:12:12;-0.50;99.90
45983;DHT22;31711;47.158;7.346;2022-12-07T18:14:38;-0.50;99.90
45983;DHT22;31711;47.158;7.346;2022-12-07T18:17:04;-0.50;99.90
45983;DHT22;31711;47.158;7.346;2022-12-07T18:19:30;-0.50;99.90
45983;DHT22;31711;47.158;7.346;2022-12-07T18:21:58;-0.50;99.90
45983;DHT22;31711;47.158;7.346;2022-12-07T18:24:24;-0.50;99.90
45983;DHT22;31711;47.158;7.346;2022-12-07T18:26:50;-0.50;99.90
45983;DHT22;31711;47.158;7.346;2022-12-07T18:29:17;-0.50;99.90
45983;DHT22;31711;47.158;7.346;2022-12-07T18:31:45;-0.60;99.90
45983;DHT22;31711;47.158;7.346;2022-12-07T18:34:16;-0.50;99.90
45983;DHT22;31711;47.158;7.346;2022-12-07T18:36:45;-0.50;99.90
45983;DHT22;31711;47.158;7.346;2022-12-07T18:39:12;-0.50;99.90
45983;DHT22;31711;47.158;7.346;2022-12-07T18:41:39;-0.50;99.90
45983;DHT22;31711;47.158;7.346;2022-12-07T18:44:05;-0.60;99.90
45983;DHT22;31711;47.158;7.346;2022-12-07T18:46:33;-0.60;99.90
45983;DHT22;31711;47.158;7.346;2022-12-07T18:48:59;-0.60;99.90
45983;DHT22;31711;47.158;7.346;2022-12-07T18:51:26;-0.70;99.90
45983;DHT22;31711;47.158;7.346;2022-12-07T18:53:55;-0.70;99.90
45983;DHT22;31711;47.158;7.346;2022-12-07T18:56:23;-0.70;99.90
45983;DHT22;31711;47.158;7.346;2022-12-07T18:58:55;-0.70;99.90
45983;DHT22;31711;47.158;7.346;2022-12-07T19:01:42;-0.70;99.90
45983;DHT22;31711;47.158;7.346;2022-12-07T19:04:08;-0.70;99.90
45983;DHT22;31711;47.158;7.346;2022-12-07T19:06:34;-0.70;99.90
45983;DHT22;31711;47.158;7.346;2022-12-07T19:09:01;-0.80;99.90
45983;DHT22;31711;47.158;7.346;2022-12-07T19:11:29;-0.80;99.90